Time;durP1;ratioP1;P1;durP2;ratioP2;P2;SDS_P1;SDS_P2;PMS_P1;PMS_P2;Temp;Humidity;BMP_temperature;BMP_pressure;BME280_temperature;BME280_humidity;BME280_pressure;Samples;Min_cycle;Max_cycle;Signal;HPM_P1;HPM_P2
2023/08/25 00:02:29;;;;;;;3.90;3.13;;;;;;;;;;5107073;27;41255;-68
2023/08/25 00:04:57;;;;;;;3.50;2.80;;;;;;;;;;5108354;27;41545;-68
2023/08/25 00:07:25;;;;;;;2.88;2.58;;;;;;;;;;5105292;27;41718;-68
2023/08/25 00:09:53;;;;;;;3.03;2.47;;;;;;;;;;5106389;27;42317;-68
2023/08/25 00:12:21;;;;;;;3.85;2.95;;;;;;;;;;5107705;27;42697;-68
2023/08/25 00:14:50;;;;;;;2.92;2.63;;;;;;;;;;5107636;27;42029;-68
2023/08/25 00:17:18;;;;;;;4.28;3.05;;;;;;;;;;5107466;27;42320;-68
2023/08/25 00:19:47;;;;;;;4.20;2.88;;;;;;;;;;5107884;27;41464;-68
2023/08/25 00:22:15;;;;;;;2.63;2.42;;;;;;;;;;5108484;27;42100;-68
2023/08/25 00:24:43;;;;;;;3.17;2.85;;;;;;;;;;5106631;27;42275;-68
2023/08/25 00:27:11;;;;;;;3.28;2.47;;;;;;;;;;5108043;27;42026;-68
2023/08/25 00:29:39;;;;;;;2.78;2.58;;;;;;;;;;5106178;27;41062;-68
2023/08/25 00:32:07;;;;;;;3.55;2.67;;;;;;;;;;5107410;27;42738;-68
2023/08/25 00:34:35;;;;;;;3.78;2.65;;;;;;;;;;5105688;28;43181;-68
2023/08/25 00:37:05;;;;;;;3.03;2.72;;;;;;;;;;5107482;28;42509;-68
2023/08/25 00:39:33;;;;;;;3.08;2.30;;;;;;;;;;5108075;27;41466;-68
2023/08/25 00:42:01;;;;;;;4.32;2.67;;;;;;;;;;5107179;28;42138;-68
2023/08/25 00:44:29;;;;;;;3.20;2.50;;;;;;;;;;5106007;27;41373;-68
2023/08/25 00:46:57;;;;;;;3.25;2.70;;;;;;;;;;5106981;28;43166;-68
2023/08/25 00:49:26;;;;;;;3.30;2.53;;;;;;;;;;5109430;27;40015;-68
2023/08/25 00:51:54;;;;;;;4.40;3.38;;;;;;;;;;5110943;27;41824;-68
2023/08/25 00:54:23;;;;;;;4.95;3.15;;;;;;;;;;5109772;28;40474;-68
2023/08/25 00:56:51;;;;;;;4.70;3.10;;;;;;;;;;5109733;28;40811;-68
2023/08/25 00:59:19;;;;;;;3.05;2.30;;;;;;;;;;5110626;28;42337;-68
2023/08/25 01:01:50;;;;;;;3.30;2.20;;;;;;;;;;5109625;28;41687;-68
2023/08/25 01:04:19;;;;;;;4.10;2.67;;;;;;;;;;5110374;28;41319;-69
2023/08/25 01:06:48;;;;;;;3.25;2.65;;;;;;;;;;5109515;28;41672;-68
2023/08/25 01:09:18;;;;;;;3.60;2.63;;;;;;;;;;5108810;27;41207;-68
2023/08/25 01:11:49;;;;;;;3.40;2.20;;;;;;;;;;5110108;28;41325;-68
2023/08/25 01:14:19;;;;;;;3.78;2.70;;;;;;;;;;5109280;27;43105;-68
2023/08/25 01:16:50;;;;;;;2.67;2.40;;;;;;;;;;5110740;28;41112;-68
2023/08/25 01:19:37;;;;;;;4.28;2.80;;;;;;;;;;5094623;28;40977;-68
2023/08/25 01:22:06;;;;;;;5.65;3.40;;;;;;;;;;5109554;27;40796;-68
2023/08/25 01:24:34;;;;;;;3.33;2.97;;;;;;;;;;5109512;28;41817;-68
2023/08/25 01:27:05;;;;;;;3.20;2.90;;;;;;;;;;5110093;27;42671;-68
2023/08/25 01:29:33;;;;;;;3.38;2.90;;;;;;;;;;5110162;27;33032;-68
2023/08/25 01:32:02;;;;;;;3.05;2.67;;;;;;;;;;5109622;27;41543;-68
2023/08/25 01:34:30;;;;;;;2.75;2.55;;;;;;;;;;5109003;27;41590;-68
2023/08/25 01:37:00;;;;;;;4.45;2.50;;;;;;;;;;5108264;27;39809;-68
2023/08/25 01:39:28;;;;;;;2.83;2.47;;;;;;;;;;5109295;27;41754;-68
2023/08/25 01:41:57;;;;;;;2.60;2.33;;;;;;;;;;5122482;27;43390;-68
2023/08/25 01:44:26;;;;;;;3.20;2.78;;;;;;;;;;5110678;27;40706;-68
2023/08/25 01:46:55;;;;;;;3.28;2.90;;;;;;;;;;5110613;28;42696;-68
2023/08/25 01:49:23;;;;;;;3.53;2.65;;;;;;;;;;5107915;28;40579;-68
2023/08/25 01:51:51;;;;;;;4.28;3.08;;;;;;;;;;5110260;28;42297;-68
2023/08/25 01:54:19;;;;;;;4.05;3.60;;;;;;;;;;5109607;28;42219;-68
2023/08/25 01:56:47;;;;;;;4.65;2.90;;;;;;;;;;5109465;27;42228;-68
2023/08/25 01:59:15;;;;;;;3.83;3.20;;;;;;;;;;5108166;27;41170;-68
2023/08/25 02:01:45;;;;;;;4.28;3.20;;;;;;;;;;5107935;27;40706;-68
2023/08/25 02:04:13;;;;;;;3.78;2.85;;;;;;;;;;5110150;27;41069;-68
2023/08/25 02:06:41;;;;;;;3.20;2.90;;;;;;;;;;5109086;27;41622;-68
2023/08/25 02:09:10;;;;;;;4.68;3.40;;;;;;;;;;5108811;27;42060;-68
2023/08/25 02:11:40;;;;;;;5.63;3.30;;;;;;;;;;5109595;27;41438;-68
2023/08/25 02:14:18;;;;;;;4.13;3.00;;;;;;;;;;5109739;28;42499;-68
2023/08/25 02:16:47;;;;;;;4.35;3.20;;;;;;;;;;5108743;27;41380;-68
2023/08/25 02:19:15;;;;;;;3.75;3.38;;;;;;;;;;5109593;28;41843;-68
2023/08/25 02:21:43;;;;;;;3.90;3.08;;;;;;;;;;5107837;28;41895;-68
2023/08/25 02:24:11;;;;;;;3.47;3.17;;;;;;;;;;5108390;27;41513;-68
2023/08/25 02:26:42;;;;;;;3.28;2.90;;;;;;;;;;5108315;28;40287;-68
2023/08/25 02:29:10;;;;;;;5.03;3.63;;;;;;;;;;5107978;28;41004;-68
2023/08/25 02:31:39;;;;;;;3.50;3.20;;;;;;;;;;5106803;28;39990;-68
2023/08/25 02:34:08;;;;;;;4.68;3.55;;;;;;;;;;5109715;27;41743;-68
2023/08/25 02:36:36;;;;;;;4.35;3.95;;;;;;;;;;5107320;28;39931;-68
2023/08/25 02:39:04;;;;;;;3.80;2.97;;;;;;;;;;5108372;27;40335;-68
2023/08/25 02:41:34;;;;;;;5.50;3.53;;;;;;;;;;5109256;27;43693;-68
2023/08/25 02:44:03;;;;;;;4.00;3.60;;;;;;;;;;5106965;28;41560;-68
2023/08/25 02:46:32;;;;;;;3.72;3.22;;;;;;;;;;5108713;28;41467;-68
2023/08/25 02:49:00;;;;;;;5.47;3.30;;;;;;;;;;5109559;28;41932;-68
2023/08/25 02:51:30;;;;;;;4.80;3.83;;;;;;;;;;5108118;28;40933;-68
2023/08/25 02:53:58;;;;;;;4.95;3.65;;;;;;;;;;5110007;27;42477;-68
2023/08/25 02:56:26;;;;;;;4.22;3.83;;;;;;;;;;5109091;28;42114;-68
2023/08/25 02:58:53;;;;;;;4.20;3.80;;;;;;;;;;5108507;28;42183;-68
2023/08/25 03:01:21;;;;;;;3.72;3.13;;;;;;;;;;5107175;28;40540;-67
2023/08/25 03:03:50;;;;;;;4.18;3.85;;;;;;;;;;5107086;28;40064;-68
2023/08/25 03:06:21;;;;;;;4.55;3.90;;;;;;;;;;5106580;28;41265;-68
2023/08/25 03:08:50;;;;;;;4.70;4.30;;;;;;;;;;5107422;28;41399;-68
2023/08/25 03:11:18;;;;;;;4.82;3.75;;;;;;;;;;5107352;27;40175;-68
2023/08/25 03:13:49;;;;;;;4.05;3.22;;;;;;;;;;5106835;28;40014;-68
2023/08/25 03:16:17;;;;;;;4.05;3.60;;;;;;;;;;5107530;28;40961;-68
2023/08/25 03:18:46;;;;;;;5.03;4.18;;;;;;;;;;5098788;27;39564;-69
2023/08/25 03:21:14;;;;;;;3.58;3.28;;;;;;;;;;5107267;27;42499;-68
2023/08/25 03:23:42;;;;;;;4.50;3.67;;;;;;;;;;5107735;28;41570;-68
2023/08/25 03:26:12;;;;;;;4.25;3.85;;;;;;;;;;5107039;27;41657;-68
2023/08/25 03:28:40;;;;;;;5.68;4.10;;;;;;;;;;5106943;27;41346;-68
2023/08/25 03:31:08;;;;;;;5.53;4.07;;;;;;;;;;5108655;28;40938;-68
2023/08/25 03:33:37;;;;;;;5.13;3.80;;;;;;;;;;5106049;27;41435;-68
2023/08/25 03:36:05;;;;;;;4.88;3.78;;;;;;;;;;5107217;27;41578;-68
2023/08/25 03:38:33;;;;;;;5.40;3.60;;;;;;;;;;5108383;28;41289;-68
2023/08/25 03:41:01;;;;;;;4.45;4.03;;;;;;;;;;5120622;27;41464;-68
2023/08/25 03:43:31;;;;;;;4.65;3.80;;;;;;;;;;5106798;27;40087;-67
2023/08/25 03:45:59;;;;;;;5.45;3.92;;;;;;;;;;5108497;28;41805;-68
2023/08/25 03:48:27;;;;;;;4.25;3.65;;;;;;;;;;5105595;28;41627;-68
2023/08/25 03:50:55;;;;;;;4.97;4.47;;;;;;;;;;5108308;28;42325;-68
2023/08/25 03:53:23;;;;;;;3.97;3.50;;;;;;;;;;5094660;28;42733;-68
2023/08/25 03:55:52;;;;;;;5.25;4.43;;;;;;;;;;5104737;27;41287;-68
2023/08/25 03:58:20;;;;;;;3.95;3.55;;;;;;;;;;5104817;28;41611;-68
2023/08/25 04:00:54;;;;;;;5.00;4.45;;;;;;;;;;5106665;28;41760;-68
2023/08/25 04:03:22;;;;;;;5.32;4.07;;;;;;;;;;5105007;28;41249;-67
2023/08/25 04:05:50;;;;;;;5.43;4.10;;;;;;;;;;5106107;28;41477;-68
2023/08/25 04:08:18;;;;;;;5.10;4.30;;;;;;;;;;5104944;27;42215;-68
2023/08/25 04:10:46;;;;;;;4.97;3.90;;;;;;;;;;5106891;28;41288;-67
2023/08/25 04:13:14;;;;;;;4.30;3.90;;;;;;;;;;5106983;27;41354;-67
2023/08/25 04:15:43;;;;;;;4.90;3.83;;;;;;;;;;5108597;27;40721;-68
2023/08/25 04:18:12;;;;;;;5.20;4.53;;;;;;;;;;5106554;27;41066;-68
2023/08/25 04:20:41;;;;;;;5.05;4.55;;;;;;;;;;5107087;28;41963;-67
2023/08/25 04:23:09;;;;;;;4.40;4.00;;;;;;;;;;5105176;27;41632;-67
2023/08/25 04:25:37;;;;;;;4.80;3.80;;;;;;;;;;5106447;28;41289;-67
2023/08/25 04:28:06;;;;;;;5.38;4.20;;;;;;;;;;5106275;27;41980;-67
2023/08/25 04:30:34;;;;;;;5.60;4.28;;;;;;;;;;5104828;27;39918;-67
2023/08/25 04:33:07;;;;;;;5.68;4.70;;;;;;;;;;5106515;28;42056;-67
2023/08/25 04:35:37;;;;;;;4.53;4.13;;;;;;;;;;5105356;28;40573;-67
2023/08/25 04:38:05;;;;;;;7.28;4.03;;;;;;;;;;5105860;28;39903;-67
2023/08/25 04:40:34;;;;;;;4.97;4.38;;;;;;;;;;5105252;28;41090;-67
2023/08/25 04:43:02;;;;;;;5.22;4.40;;;;;;;;;;5107538;28;42158;-68
2023/08/25 04:45:30;;;;;;;5.45;4.95;;;;;;;;;;5106681;27;40788;-67
2023/08/25 04:47:58;;;;;;;6.00;5.13;;;;;;;;;;5123113;27;40718;-68
2023/08/25 04:50:27;;;;;;;5.57;5.05;;;;;;;;;;5105044;27;41179;-68
2023/08/25 04:52:56;;;;;;;4.88;4.00;;;;;;;;;;5106322;27;40267;-67
2023/08/25 04:55:27;;;;;;;5.03;4.63;;;;;;;;;;5106800;27;42801;-67
2023/08/25 04:57:56;;;;;;;4.63;3.85;;;;;;;;;;5105350;28;40011;-68
2023/08/25 05:00:25;;;;;;;4.82;4.43;;;;;;;;;;5109367;27;41968;-68
2023/08/25 05:02:53;;;;;;;6.07;4.75;;;;;;;;;;5107862;27;40604;-68
2023/08/25 05:05:21;;;;;;;4.72;4.30;;;;;;;;;;5104554;27;41504;-68
2023/08/25 05:07:52;;;;;;;4.38;3.97;;;;;;;;;;5093638;27;42320;-67
2023/08/25 05:10:25;;;;;;;4.32;3.92;;;;;;;;;;5099570;27;42474;-67
2023/08/25 05:12:53;;;;;;;4.25;3.85;;;;;;;;;;5106475;27;40040;-68
2023/08/25 05:15:21;;;;;;;5.35;4.55;;;;;;;;;;5105562;27;42097;-68
2023/08/25 05:17:49;;;;;;;4.70;4.30;;;;;;;;;;5105667;28;40359;-68
2023/08/25 05:20:18;;;;;;;6.13;5.00;;;;;;;;;;5104462;28;40940;-68
2023/08/25 05:22:46;;;;;;;6.28;4.22;;;;;;;;;;5115212;27;42049;-68
2023/08/25 05:25:15;;;;;;;4.55;4.03;;;;;;;;;;5104794;27;41321;-68
2023/08/25 05:27:46;;;;;;;4.45;4.05;;;;;;;;;;5107152;27;40261;-66
2023/08/25 05:30:13;;;;;;;19.92;18.00;;;;;;;;;;5104857;27;40330;-66
2023/08/25 05:32:46;;;;;;;23.73;21.25;;;;;;;;;;5105463;27;42545;-71
2023/08/25 05:35:31;;;;;;;24.33;21.80;;;;;;;;;;5103311;28;41331;-71
2023/08/25 05:38:00;;;;;;;30.63;22.98;;;;;;;;;;5107612;28;41125;-70
2023/08/25 05:40:28;;;;;;;25.08;22.45;;;;;;;;;;5107548;27;40715;-68
2023/08/25 05:42:59;;;;;;;25.88;23.20;;;;;;;;;;5108245;28;42147;-66
2023/08/25 05:45:27;;;;;;;27.25;24.45;;;;;;;;;;5108150;27;40891;-66
2023/08/25 05:47:55;;;;;;;27.83;25.00;;;;;;;;;;5109283;27;40321;-66
2023/08/25 05:50:23;;;;;;;26.27;23.58;;;;;;;;;;5111713;27;41824;-66
2023/08/25 05:52:53;;;;;;;25.67;23.15;;;;;;;;;;5116721;27;40204;-69
2023/08/25 05:55:23;;;;;;;26.25;22.27;;;;;;;;;;5109785;27;40561;-65
2023/08/25 05:57:51;;;;;;;26.63;23.77;;;;;;;;;;5108998;27;42464;-65
2023/08/25 06:00:21;;;;;;;27.17;24.45;;;;;;;;;;5109463;27;41260;-66
2023/08/25 06:02:49;;;;;;;28.40;25.15;;;;;;;;;;5100039;27;42205;-67
2023/08/25 06:05:21;;;;;;;28.38;25.40;;;;;;;;;;5106447;28;41085;-67
2023/08/25 06:07:49;;;;;;;28.30;23.67;;;;;;;;;;5109734;27;41776;-67
2023/08/25 06:10:17;;;;;;;28.60;25.60;;;;;;;;;;5109018;27;42145;-67
2023/08/25 06:12:45;;;;;;;28.38;25.27;;;;;;;;;;5109859;27;41248;-66
2023/08/25 06:15:15;;;;;;;30.17;25.25;;;;;;;;;;5108578;27;41890;-66
2023/08/25 06:17:45;;;;;;;28.67;25.73;;;;;;;;;;5107031;27;41435;-67
2023/08/25 06:20:13;;;;;;;29.75;26.45;;;;;;;;;;5107653;27;42691;-68
2023/08/25 06:22:41;;;;;;;27.20;22.38;;;;;;;;;;5106551;27;43083;-70
2023/08/25 06:25:09;;;;;;;22.35;19.73;;;;;;;;;;5108311;27;41638;-71
2023/08/25 06:27:37;;;;;;;20.08;16.45;;;;;;;;;;5117226;27;42631;-72
2023/08/25 06:30:06;;;;;;;20.08;15.73;;;;;;;;;;5111532;27;41773;-71
2023/08/25 06:32:33;;;;;;;19.42;14.93;;;;;;;;;;5105557;27;41869;-72
2023/08/25 06:35:03;;;;;;;14.95;13.18;;;;;;;;;;5109093;27;42555;-72
2023/08/25 06:37:31;;;;;;;14.18;12.63;;;;;;;;;;5106755;28;41225;-72
2023/08/25 06:39:59;;;;;;;13.68;12.27;;;;;;;;;;5108726;27;41091;-72
2023/08/25 06:42:27;;;;;;;14.75;11.75;;;;;;;;;;5107983;27;41811;-72
2023/08/25 06:44:55;;;;;;;12.82;11.45;;;;;;;;;;5108700;27;41099;-71
2023/08/25 06:47:23;;;;;;;13.63;10.98;;;;;;;;;;5108762;27;41675;-72
2023/08/25 06:49:51;;;;;;;15.60;10.57;;;;;;;;;;5108198;27;42138;-72
2023/08/25 06:52:20;;;;;;;11.52;9.93;;;;;;;;;;5108612;27;42419;-72
2023/08/25 06:54:48;;;;;;;10.00;9.02;;;;;;;;;;5108686;27;41661;-72
2023/08/25 06:57:16;;;;;;;10.23;8.75;;;;;;;;;;5108388;27;42284;-72
2023/08/25 06:59:44;;;;;;;11.70;8.45;;;;;;;;;;5108001;27;42169;-72
2023/08/25 07:02:13;;;;;;;10.85;8.02;;;;;;;;;;5109453;27;42163;-72
2023/08/25 07:04:41;;;;;;;7.97;7.20;;;;;;;;;;5107385;27;41988;-72
2023/08/25 07:07:09;;;;;;;8.38;7.43;;;;;;;;;;5108687;27;41875;-72
2023/08/25 07:09:38;;;;;;;8.80;7.03;;;;;;;;;;5107976;27;42592;-72
2023/08/25 07:12:11;;;;;;;7.65;6.85;;;;;;;;;;5108054;27;41341;-72
2023/08/25 07:14:39;;;;;;;7.78;6.50;;;;;;;;;;5108316;27;42742;-72
2023/08/25 07:17:07;;;;;;;7.30;6.00;;;;;;;;;;5108538;27;43205;-72
2023/08/25 07:19:36;;;;;;;6.47;5.30;;;;;;;;;;5107353;27;42413;-72
2023/08/25 07:22:04;;;;;;;8.95;5.90;;;;;;;;;;5107995;27;42233;-72
2023/08/25 07:24:32;;;;;;;9.50;5.78;;;;;;;;;;5108567;27;41418;-72
2023/08/25 07:27:01;;;;;;;7.45;5.32;;;;;;;;;;5107853;27;42681;-72
2023/08/25 07:29:29;;;;;;;7.68;5.30;;;;;;;;;;5107516;27;42593;-72
2023/08/25 07:31:57;;;;;;;6.70;5.03;;;;;;;;;;5108429;27;41458;-72
2023/08/25 07:34:25;;;;;;;4.95;4.45;;;;;;;;;;5107317;27;41869;-72
2023/08/25 07:36:53;;;;;;;5.55;4.47;;;;;;;;;;5108682;27;42626;-72
2023/08/25 07:39:21;;;;;;;6.38;4.25;;;;;;;;;;5106901;27;41268;-72
2023/08/25 07:41:49;;;;;;;5.90;4.43;;;;;;;;;;5108402;27;42213;-72
2023/08/25 07:44:19;;;;;;;6.30;4.40;;;;;;;;;;5107858;27;41045;-72
2023/08/25 07:46:47;;;;;;;6.90;5.07;;;;;;;;;;5107423;27;42247;-72
2023/08/25 07:49:15;;;;;;;8.73;3.88;;;;;;;;;;5108090;27;41706;-72
2023/08/25 07:51:43;;;;;;;4.72;4.22;;;;;;;;;;5107756;27;42351;-72
2023/08/25 07:54:11;;;;;;;6.53;3.97;;;;;;;;;;5107660;27;41825;-72
2023/08/25 07:56:39;;;;;;;7.60;4.55;;;;;;;;;;5107128;27;42073;-72
2023/08/25 07:59:07;;;;;;;4.57;3.97;;;;;;;;;;5107331;27;41123;-72
2023/08/25 08:01:37;;;;;;;5.35;3.95;;;;;;;;;;5104986;27;41199;-72
2023/08/25 08:04:07;;;;;;;5.40;3.67;;;;;;;;;;5108015;27;41349;-72
2023/08/25 08:06:36;;;;;;;4.57;3.80;;;;;;;;;;5107591;27;42178;-72
2023/08/25 08:09:06;;;;;;;4.50;3.50;;;;;;;;;;5106739;27;41671;-72
2023/08/25 08:11:34;;;;;;;3.92;3.40;;;;;;;;;;5107128;27;42295;-72
2023/08/25 08:14:03;;;;;;;4.57;3.53;;;;;;;;;;5108138;27;42623;-72
2023/08/25 08:16:31;;;;;;;4.43;3.97;;;;;;;;;;5106484;27;42734;-72
2023/08/25 08:19:05;;;;;;;3.53;3.22;;;;;;;;;;5108186;27;42472;-72
2023/08/25 08:21:32;;;;;;;5.13;3.40;;;;;;;;;;5105703;27;41632;-72
2023/08/25 08:24:01;;;;;;;4.22;3.03;;;;;;;;;;5094025;27;42528;-72
2023/08/25 08:26:29;;;;;;;4.47;3.10;;;;;;;;;;5107129;27;42680;-72
2023/08/25 08:28:57;;;;;;;6.32;3.10;;;;;;;;;;5106842;27;42363;-72
2023/08/25 08:31:25;;;;;;;4.05;2.80;;;;;;;;;;5107178;27;41298;-72
2023/08/25 08:33:53;;;;;;;3.78;2.75;;;;;;;;;;5107504;27;41678;-72
2023/08/25 08:36:23;;;;;;;4.40;2.70;;;;;;;;;;5106261;27;41899;-72
2023/08/25 08:38:51;;;;;;;3.80;3.00;;;;;;;;;;5107162;27;40946;-72
2023/08/25 08:41:19;;;;;;;4.80;2.88;;;;;;;;;;5106914;27;42493;-72
2023/08/25 08:43:47;;;;;;;4.38;2.92;;;;;;;;;;5105912;27;42694;-72
2023/08/25 08:46:17;;;;;;;3.15;2.78;;;;;;;;;;5107218;27;42908;-72
2023/08/25 08:48:45;;;;;;;3.90;2.80;;;;;;;;;;5106821;27;41984;-72
2023/08/25 08:51:13;;;;;;;3.40;3.00;;;;;;;;;;5106632;27;41780;-72
2023/08/25 08:53:43;;;;;;;3.28;2.83;;;;;;;;;;5106901;27;41460;-72
2023/08/25 08:56:11;;;;;;;3.63;2.60;;;;;;;;;;5106983;27;43089;-72
2023/08/25 08:58:38;;;;;;;3.05;2.70;;;;;;;;;;5106329;27;41420;-72
2023/08/25 09:01:07;;;;;;;3.28;2.88;;;;;;;;;;5106767;27;42161;-72
2023/08/25 09:03:35;;;;;;;3.35;2.63;;;;;;;;;;5105922;27;41665;-72
2023/08/25 09:06:04;;;;;;;3.63;2.70;;;;;;;;;;5106992;27;41569;-72
2023/08/25 09:08:32;;;;;;;3.45;2.47;;;;;;;;;;5106726;27;42801;-72
2023/08/25 09:11:02;;;;;;;3.75;3.03;;;;;;;;;;5109827;27;41351;-72
2023/08/25 09:13:31;;;;;;;3.33;2.53;;;;;;;;;;5109599;27;41185;-72
2023/08/25 09:15:59;;;;;;;2.53;2.30;;;;;;;;;;5110937;27;43059;-72
2023/08/25 09:18:33;;;;;;;3.00;2.67;;;;;;;;;;5108997;27;41953;-72
2023/08/25 09:21:01;;;;;;;3.28;2.53;;;;;;;;;;5110237;27;41713;-72
2023/08/25 09:23:29;;;;;;;3.42;2.42;;;;;;;;;;5109377;27;43219;-72
2023/08/25 09:25:58;;;;;;;3.15;2.15;;;;;;;;;;5110092;27;42321;-72
2023/08/25 09:28:27;;;;;;;2.70;2.50;;;;;;;;;;5109845;27;41582;-72
2023/08/25 09:30:55;;;;;;;3.67;2.50;;;;;;;;;;5110599;27;41652;-72
2023/08/25 09:33:24;;;;;;;4.43;2.40;;;;;;;;;;5109359;27;41764;-72
2023/08/25 09:35:52;;;;;;;3.38;2.67;;;;;;;;;;5109699;27;41780;-72
2023/08/25 09:38:20;;;;;;;2.40;2.10;;;;;;;;;;5110455;27;40943;-72
2023/08/25 09:40:48;;;;;;;3.45;2.35;;;;;;;;;;5109205;27;41441;-73
2023/08/25 09:43:17;;;;;;;3.10;2.50;;;;;;;;;;5109761;27;43099;-72
2023/08/25 09:45:46;;;;;;;3.00;2.53;;;;;;;;;;5109057;27;40838;-72
2023/08/25 09:48:14;;;;;;;2.33;2.13;;;;;;;;;;5110077;27;41645;-72
2023/08/25 09:50:42;;;;;;;3.90;2.60;;;;;;;;;;5109284;27;41761;-72
2023/08/25 09:53:12;;;;;;;2.65;2.10;;;;;;;;;;5109524;27;40825;-72
2023/08/25 09:55:40;;;;;;;2.35;2.15;;;;;;;;;;5108801;27;42140;-72
2023/08/25 09:58:08;;;;;;;3.03;2.33;;;;;;;;;;5110054;27;41293;-72
2023/08/25 10:00:37;;;;;;;3.63;2.92;;;;;;;;;;5108561;27;43237;-72
2023/08/25 10:03:08;;;;;;;2.80;2.60;;;;;;;;;;5110233;27;41546;-72
2023/08/25 10:05:37;;;;;;;3.17;2.50;;;;;;;;;;5109102;27;42307;-72
2023/08/25 10:08:05;;;;;;;2.20;2.00;;;;;;;;;;5108911;27;41327;-72
2023/08/25 10:10:35;;;;;;;2.28;2.00;;;;;;;;;;5109295;27;42678;-72
2023/08/25 10:13:03;;;;;;;3.28;2.15;;;;;;;;;;5110734;27;41544;-72
2023/08/25 10:15:31;;;;;;;5.53;1.98;;;;;;;;;;5108052;27;41593;-72
2023/08/25 10:18:00;;;;;;;2.20;2.00;;;;;;;;;;5109819;27;42332;-72
2023/08/25 10:20:30;;;;;;;2.45;2.25;;;;;;;;;;5107699;27;41352;-72
2023/08/25 10:22:58;;;;;;;2.90;2.20;;;;;;;;;;5108534;27;41648;-72
2023/08/25 10:25:27;;;;;;;2.92;2.20;;;;;;;;;;5108802;27;41338;-72
2023/08/25 10:27:56;;;;;;;2.13;1.98;;;;;;;;;;5108840;27;41900;-72
2023/08/25 10:30:24;;;;;;;2.25;2.05;;;;;;;;;;5108890;27;42005;-72
2023/08/25 10:32:55;;;;;;;2.10;1.90;;;;;;;;;;5109165;27;41057;-72
2023/08/25 10:35:40;;;;;;;2.80;2.13;;;;;;;;;;5108964;27;41805;-72
2023/08/25 10:38:26;;;;;;;2.47;2.25;;;;;;;;;;5109293;27;41049;-72
2023/08/25 10:40:55;;;;;;;2.30;1.70;;;;;;;;;;5109545;27;41826;-72
2023/08/25 10:43:26;;;;;;;1.90;1.70;;;;;;;;;;5108294;27;42611;-72
2023/08/25 10:45:54;;;;;;;2.47;2.00;;;;;;;;;;5109697;27;41846;-72
2023/08/25 10:48:23;;;;;;;1.83;1.73;;;;;;;;;;5109120;27;41015;-72
2023/08/25 10:51:09;;;;;;;2.15;1.85;;;;;;;;;;5108467;27;43098;-72
2023/08/25 10:53:37;;;;;;;1.85;1.60;;;;;;;;;;5109228;27;42410;-72
2023/08/25 10:56:15;;;;;;;3.22;1.92;;;;;;;;;;5107889;27;41764;-72
2023/08/25 10:58:43;;;;;;;2.08;1.65;;;;;;;;;;5108975;27;42245;-72
2023/08/25 11:01:11;;;;;;;2.08;1.55;;;;;;;;;;5108693;27;41106;-73
2023/08/25 11:03:48;;;;;;;1.80;1.52;;;;;;;;;;5108086;27;41871;-73
2023/08/25 11:06:35;;;;;;;1.90;1.70;;;;;;;;;;5108092;27;41077;-73
2023/08/25 11:09:04;;;;;;;2.05;1.65;;;;;;;;;;5109058;27;40959;-74
2023/08/25 11:11:36;;;;;;;1.90;1.70;;;;;;;;;;5107545;27;41542;-72
2023/08/25 11:14:04;;;;;;;1.70;1.60;;;;;;;;;;5108684;27;41728;-72
2023/08/25 11:16:32;;;;;;;1.98;1.80;;;;;;;;;;5107870;27;41644;-73
2023/08/25 11:19:00;;;;;;;1.88;1.73;;;;;;;;;;5107746;27;42322;-71
2023/08/25 11:21:28;;;;;;;7.75;4.82;;;;;;;;;;5111735;27;41150;-73
2023/08/25 11:23:56;;;;;;;11.15;6.70;;;;;;;;;;5112101;27;41414;-75
2023/08/25 11:26:25;;;;;;;10.35;8.05;;;;;;;;;;5107462;27;40686;-72
2023/08/25 11:28:54;;;;;;;9.63;7.93;;;;;;;;;;5107719;27;42325;-69
2023/08/25 11:31:22;;;;;;;11.95;7.57;;;;;;;;;;5107363;27;41840;-69
2023/08/25 11:33:50;;;;;;;11.10;7.97;;;;;;;;;;5108599;27;42707;-70
2023/08/25 11:36:18;;;;;;;9.88;8.25;;;;;;;;;;5107981;27;41639;-73
2023/08/25 11:38:50;;;;;;;11.07;9.38;;;;;;;;;;5107433;27;42093;-75
2023/08/25 11:41:18;;;;;;;10.07;8.73;;;;;;;;;;5107798;27;42277;-78
2023/08/25 11:43:47;;;;;;;9.82;8.68;;;;;;;;;;5108503;27;40732;-74
2023/08/25 11:46:15;;;;;;;16.42;9.27;;;;;;;;;;5107296;27;42390;-74
2023/08/25 11:48:43;;;;;;;10.57;8.00;;;;;;;;;;5108050;27;41734;-70
2023/08/25 11:51:14;;;;;;;9.40;8.45;;;;;;;;;;5114441;27;42732;-68
2023/08/25 11:53:42;;;;;;;10.43;7.60;;;;;;;;;;5108579;27;40579;-68
2023/08/25 11:56:13;;;;;;;10.55;7.63;;;;;;;;;;5119989;27;42309;-69
2023/08/25 11:58:41;;;;;;;10.65;7.70;;;;;;;;;;5107072;27;42859;-68
2023/08/25 12:01:11;;;;;;;8.60;6.90;;;;;;;;;;5106893;27;41263;-69
2023/08/25 12:03:39;;;;;;;9.63;6.47;;;;;;;;;;5106913;27;41849;-69
2023/08/25 12:06:07;;;;;;;6.43;5.82;;;;;;;;;;5103118;28;33131;-68
2023/08/25 12:08:35;;;;;;;6.88;5.20;;;;;;;;;;5106149;27;42709;-68
2023/08/25 12:11:04;;;;;;;8.90;5.05;;;;;;;;;;5106612;28;41996;-68
2023/08/25 12:13:32;;;;;;;6.25;4.70;;;;;;;;;;5106168;27;41280;-69
2023/08/25 12:16:00;;;;;;;5.30;4.72;;;;;;;;;;5107799;27;42407;-69
2023/08/25 12:18:36;;;;;;;5.68;4.60;;;;;;;;;;5106954;27;42099;-69
2023/08/25 12:21:06;;;;;;;8.85;4.85;;;;;;;;;;5106718;27;40875;-69
2023/08/25 12:23:35;;;;;;;8.40;5.30;;;;;;;;;;5106499;27;41707;-70
2023/08/25 12:26:04;;;;;;;6.05;5.28;;;;;;;;;;5107855;27;42050;-72
2023/08/25 12:28:32;;;;;;;6.03;4.82;;;;;;;;;;5105747;27;41827;-71
2023/08/25 12:31:00;;;;;;;11.13;4.78;;;;;;;;;;5107085;27;42714;-71
2023/08/25 12:33:28;;;;;;;9.85;4.00;;;;;;;;;;5106299;27;41413;-70
2023/08/25 12:35:58;;;;;;;6.88;6.25;;;;;;;;;;5106916;27;41684;-71
2023/08/25 12:38:26;;;;;;;4.65;3.88;;;;;;;;;;5106624;27;41606;-70
2023/08/25 12:40:54;;;;;;;7.75;3.20;;;;;;;;;;5106658;27;41209;-71
2023/08/25 12:43:25;;;;;;;4.40;3.50;;;;;;;;;;5104879;27;42499;-71
2023/08/25 12:45:53;;;;;;;5.65;3.60;;;;;;;;;;5112279;27;43115;-71
2023/08/25 12:48:21;;;;;;;5.30;3.75;;;;;;;;;;5111956;27;41249;-71
2023/08/25 12:50:49;;;;;;;3.78;3.13;;;;;;;;;;5110585;27;42507;-71
2023/08/25 12:53:21;;;;;;;7.40;6.10;;;;;;;;;;5115643;27;41016;-70
2023/08/25 12:55:49;;;;;;;6.45;5.53;;;;;;;;;;5120034;27;41531;-69
2023/08/25 12:58:17;;;;;;;7.55;6.53;;;;;;;;;;5119627;27;43277;-70
2023/08/25 13:00:45;;;;;;;7.00;5.80;;;;;;;;;;5119391;27;41223;-69
2023/08/25 13:03:14;;;;;;;8.38;7.22;;;;;;;;;;5124258;27;42200;-70
2023/08/25 13:05:42;;;;;;;8.77;7.15;;;;;;;;;;5114172;27;43130;-70
2023/08/25 13:08:10;;;;;;;7.88;6.63;;;;;;;;;;5115639;27;42283;-70
2023/08/25 13:10:39;;;;;;;7.78;6.93;;;;;;;;;;5115889;27;41712;-70
2023/08/25 13:13:07;;;;;;;8.02;7.22;;;;;;;;;;5114296;27;41008;-70
2023/08/25 13:15:35;;;;;;;10.35;6.97;;;;;;;;;;5113531;27;42219;-69
2023/08/25 13:18:03;;;;;;;7.40;6.70;;;;;;;;;;5115952;27;43145;-69
2023/08/25 13:20:31;;;;;;;8.65;7.43;;;;;;;;;;5112449;27;41407;-69
2023/08/25 13:23:00;;;;;;;9.80;8.27;;;;;;;;;;5115222;27;42957;-70
2023/08/25 13:25:28;;;;;;;8.05;7.38;;;;;;;;;;5114725;27;42803;-72
2023/08/25 13:27:57;;;;;;;9.75;7.80;;;;;;;;;;5116423;27;42278;-73
2023/08/25 13:30:25;;;;;;;8.13;7.30;;;;;;;;;;5113991;27;42179;-73
2023/08/25 13:32:54;;;;;;;8.85;7.75;;;;;;;;;;5113955;27;20297;-73
2023/08/25 13:35:22;;;;;;;8.93;8.02;;;;;;;;;;5112932;27;42683;-74
2023/08/25 13:37:50;;;;;;;9.77;8.70;;;;;;;;;;5112547;27;41701;-73
2023/08/25 13:40:19;;;;;;;9.60;8.73;;;;;;;;;;5111569;27;42114;-73
2023/08/25 13:42:47;;;;;;;9.50;8.60;;;;;;;;;;5112183;27;41185;-73
2023/08/25 13:45:17;;;;;;;10.65;8.40;;;;;;;;;;5112425;27;41930;-73
2023/08/25 13:47:45;;;;;;;10.45;9.18;;;;;;;;;;5112442;27;40898;-73
2023/08/25 13:50:14;;;;;;;11.88;8.98;;;;;;;;;;5112706;27;42755;-73
2023/08/25 13:52:42;;;;;;;9.48;8.40;;;;;;;;;;5111521;27;42152;-73
2023/08/25 13:55:10;;;;;;;11.55;8.93;;;;;;;;;;5111419;27;40804;-73
2023/08/25 13:57:40;;;;;;;11.13;9.27;;;;;;;;;;5108210;27;42158;-73
2023/08/25 14:00:10;;;;;;;10.15;9.15;;;;;;;;;;5108241;27;41766;-73
2023/08/25 14:02:43;;;;;;;11.07;9.00;;;;;;;;;;5109696;28;42932;-72
2023/08/25 14:05:12;;;;;;;9.88;8.90;;;;;;;;;;5109308;27;41747;-72
2023/08/25 14:07:41;;;;;;;10.65;8.88;;;;;;;;;;5107675;27;42377;-73
2023/08/25 14:10:09;;;;;;;11.77;9.15;;;;;;;;;;5108529;27;42034;-73
2023/08/25 14:12:38;;;;;;;11.43;10.38;;;;;;;;;;5108311;27;43170;-73
2023/08/25 14:15:07;;;;;;;11.52;10.50;;;;;;;;;;5108753;27;41964;-73
2023/08/25 14:17:35;;;;;;;10.98;9.88;;;;;;;;;;5108562;27;42250;-73
2023/08/25 14:20:05;;;;;;;14.45;10.15;;;;;;;;;;5108104;27;41294;-73
2023/08/25 14:22:33;;;;;;;10.73;9.27;;;;;;;;;;5108489;27;41734;-72
2023/08/25 14:25:01;;;;;;;10.15;8.85;;;;;;;;;;5107873;27;42868;-73
2023/08/25 14:27:29;;;;;;;10.90;8.98;;;;;;;;;;5107499;27;42027;-73
2023/08/25 14:29:57;;;;;;;10.23;8.63;;;;;;;;;;5108987;27;42488;-73
2023/08/25 14:32:27;;;;;;;8.95;8.02;;;;;;;;;;5108600;27;42170;-73
2023/08/25 14:34:56;;;;;;;9.38;8.48;;;;;;;;;;5100126;28;42233;-73
2023/08/25 14:37:25;;;;;;;8.80;8.00;;;;;;;;;;5108936;27;42358;-73
2023/08/25 14:39:53;;;;;;;8.50;7.53;;;;;;;;;;5108715;27;40971;-73
2023/08/25 14:42:21;;;;;;;11.85;9.27;;;;;;;;;;5107442;27;41463;-69
2023/08/25 14:44:49;;;;;;;10.60;9.57;;;;;;;;;;5108200;27;42843;-69
2023/08/25 14:47:19;;;;;;;10.32;9.32;;;;;;;;;;5108822;27;40799;-69
2023/08/25 14:49:48;;;;;;;11.50;10.43;;;;;;;;;;5107347;27;42555;-69